createdAt,value
2019-05-23T00:01:23.676Z,12.30
2019-05-23T00:04:08.616Z,12.30
2019-05-23T00:06:40.828Z,12.30
2019-05-23T00:09:09.895Z,12.30
2019-05-23T00:11:44.648Z,12.30
2019-05-23T00:14:38.074Z,12.20
2019-05-23T00:17:09.699Z,12.20
2019-05-23T00:19:39.861Z,12.20
2019-05-23T00:22:11.676Z,12.20
2019-05-23T00:24:42.472Z,12.20
2019-05-23T00:27:11.444Z,12.20
2019-05-23T00:29:40.631Z,12.20
2019-05-23T00:32:26.673Z,12.20
2019-05-23T00:34:56.844Z,12.20
2019-05-23T00:37:27.423Z,12.10
2019-05-23T00:39:56.526Z,12.10
2019-05-23T00:42:26.122Z,12.10
2019-05-23T00:44:55.994Z,12.10
2019-05-23T00:47:24.595Z,12.10
2019-05-23T00:49:53.201Z,12.10
2019-05-23T00:52:22.018Z,12.00
2019-05-23T00:54:50.981Z,12.00
2019-05-23T00:57:20.176Z,12.00
2019-05-23T00:59:48.973Z,12.00
2019-05-23T01:02:17.875Z,12.00
2019-05-23T01:04:47.650Z,11.90
2019-05-23T01:07:17.038Z,12.00
2019-05-23T01:09:46.139Z,12.00
2019-05-23T01:12:14.763Z,12.00
2019-05-23T01:14:43.434Z,12.00
2019-05-23T01:17:11.967Z,12.00
2019-05-23T01:19:40.666Z,11.90
2019-05-23T01:22:10.821Z,11.90
2019-05-23T01:24:40.893Z,11.90
2019-05-23T01:27:10.269Z,11.90
2019-05-23T01:29:40.498Z,11.90
2019-05-23T01:32:26.189Z,11.90
2019-05-23T01:34:55.360Z,11.90
2019-05-23T01:37:24.253Z,11.80
2019-05-23T01:39:52.926Z,11.80
2019-05-23T01:42:22.331Z,11.80
2019-05-23T01:44:52.030Z,11.80
2019-05-23T01:47:21.021Z,11.80
2019-05-23T01:49:50.692Z,11.80
2019-05-23T01:52:19.207Z,11.70
2019-05-23T01:54:48.481Z,11.70
2019-05-23T01:57:17.010Z,11.70
2019-05-23T01:59:45.499Z,11.60
2019-05-23T02:02:14.297Z,11.60
2019-05-23T02:04:43.001Z,11.60
2019-05-23T02:07:11.901Z,11.50
2019-05-23T02:09:40.787Z,11.60
2019-05-23T02:12:10.710Z,11.50
2019-05-23T02:14:40.641Z,11.60
2019-05-23T02:17:10.914Z,11.50
2019-05-23T02:19:39.339Z,11.50
2019-05-23T02:22:08.547Z,11.50
2019-05-23T02:24:38.052Z,11.40
2019-05-23T02:27:08.381Z,11.30
2019-05-23T02:29:37.256Z,11.30
2019-05-23T02:32:07.060Z,11.30
2019-05-23T02:34:36.123Z,11.20
2019-05-23T02:37:06.254Z,11.20
2019-05-23T02:39:54.581Z,11.20
2019-05-23T02:42:27.536Z,11.10
2019-05-23T02:44:56.595Z,11.10
2019-05-23T02:47:26.661Z,11.10
2019-05-23T02:49:56.052Z,11.10
2019-05-23T02:52:44.189Z,11.00
2019-05-23T02:55:15.994Z,11.00
2019-05-23T02:57:46.892Z,11.00
2019-05-23T03:00:52.081Z,11.00
2019-05-23T03:03:08.827Z,11.00
2019-05-23T03:05:38.708Z,11.00
2019-05-23T03:08:09.263Z,11.00
2019-05-23T03:10:57.686Z,10.90
2019-05-23T03:13:28.842Z,10.90
2019-05-23T03:15:57.944Z,11.00
2019-05-23T03:18:34.053Z,10.90
2019-05-23T03:21:01.606Z,11.00
2019-05-23T03:23:32.668Z,10.90
2019-05-23T03:26:19.316Z,10.90
2019-05-23T03:28:48.544Z,10.90
2019-05-23T03:31:29.434Z,10.90
2019-05-23T03:33:52.073Z,10.90
2019-05-23T03:36:21.135Z,10.80
2019-05-23T03:38:51.182Z,10.80
2019-05-23T03:41:20.182Z,10.80
2019-05-23T03:43:48.858Z,10.80
2019-05-23T03:46:19.122Z,10.80
2019-05-23T03:48:47.901Z,10.70
2019-05-23T03:51:17.128Z,10.70
2019-05-23T03:53:47.061Z,10.60
2019-05-23T03:56:15.677Z,10.60
2019-05-23T03:58:44.924Z,10.50
2019-05-23T04:01:15.248Z,10.50
2019-05-23T04:03:44.676Z,10.50
2019-05-23T04:06:13.932Z,10.50
2019-05-23T04:08:43.022Z,10.40
2019-05-23T04:11:11.653Z,10.40
2019-05-23T04:13:40.150Z,10.30
2019-05-23T04:16:09.349Z,10.30
2019-05-23T04:18:38.238Z,10.20
2019-05-23T04:21:06.695Z,10.20
2019-05-23T04:23:35.362Z,10.20
2019-05-23T04:26:04.149Z,10.10
2019-05-23T04:28:32.646Z,10.10
2019-05-23T04:31:01.695Z,10.00
2019-05-23T04:33:30.515Z,9.90
2019-05-23T04:35:59.543Z,9.90
2019-05-23T04:38:28.138Z,9.90
2019-05-23T04:40:56.776Z,9.90
2019-05-23T04:43:25.296Z,9.90
2019-05-23T04:45:53.810Z,9.80
2019-05-23T04:48:22.412Z,9.90
2019-05-23T04:50:51.598Z,9.90
2019-05-23T04:53:20.290Z,9.80
2019-05-23T04:55:49.248Z,9.70
2019-05-23T04:58:17.752Z,9.70
2019-05-23T05:00:46.388Z,9.70
2019-05-23T05:03:18.358Z,9.80
2019-05-23T05:05:46.769Z,10.00
2019-05-23T05:08:15.334Z,10.10
2019-05-23T05:10:44.962Z,10.10
2019-05-23T05:13:13.379Z,10.20
2019-05-23T05:15:41.856Z,10.30
2019-05-23T05:18:11.089Z,10.50
2019-05-23T05:20:39.614Z,10.60
2019-05-23T05:23:08.132Z,10.60
2019-05-23T05:25:36.927Z,10.70
2019-05-23T05:28:06.124Z,10.80
2019-05-23T05:30:34.698Z,10.90
2019-05-23T05:33:03.476Z,11.00
2019-05-23T05:35:33.342Z,11.10
2019-05-23T05:38:01.924Z,11.10
2019-05-23T05:40:30.727Z,11.20
2019-05-23T05:42:59.943Z,11.40
2019-05-23T05:45:28.452Z,11.50
2019-05-23T05:47:56.955Z,11.50
2019-05-23T05:50:25.878Z,11.70
2019-05-23T05:52:54.570Z,11.90
2019-05-23T05:55:23.323Z,12.10
2019-05-23T05:57:51.913Z,12.30
2019-05-23T06:00:28.393Z,12.50
2019-05-23T06:03:04.053Z,12.50
2019-05-23T06:05:44.773Z,12.60
2019-05-23T06:08:14.862Z,12.70
2019-05-23T06:10:43.466Z,12.80
2019-05-23T06:13:11.982Z,12.80
2019-05-23T06:15:40.406Z,12.90
2019-05-23T06:18:09.038Z,13.00
2019-05-23T06:20:41.052Z,13.00
2019-05-23T06:23:11.961Z,13.00
2019-05-23T06:25:40.640Z,13.00
2019-05-23T06:28:09.425Z,13.10
2019-05-23T06:30:39.209Z,13.10
2019-05-23T06:33:22.540Z,13.10
2019-05-23T06:35:39.196Z,13.20
2019-05-23T06:38:07.658Z,13.30
2019-05-23T06:40:37.043Z,13.40
2019-05-23T06:43:06.414Z,13.40
2019-05-23T06:45:34.982Z,13.50
2019-05-23T06:48:04.337Z,13.60
2019-05-23T06:50:33.331Z,13.70
2019-05-23T06:53:02.533Z,13.70
2019-05-23T06:55:31.311Z,13.70
2019-05-23T06:58:00.208Z,13.80
2019-05-23T07:00:29.915Z,13.80
2019-05-23T07:02:58.420Z,14.00
2019-05-23T07:05:30.012Z,14.10
2019-05-23T07:07:58.471Z,14.20
2019-05-23T07:10:27.580Z,14.20
2019-05-23T07:12:56.086Z,14.30
2019-05-23T07:15:25.988Z,14.40
2019-05-23T07:17:54.673Z,14.40
2019-05-23T07:20:23.196Z,14.40
2019-05-23T07:22:51.698Z,14.40
2019-05-23T07:25:20.332Z,14.40
2019-05-23T07:27:49.505Z,14.40
2019-05-23T07:30:23.944Z,14.50
2019-05-23T07:32:52.869Z,14.60
2019-05-23T07:35:21.459Z,14.60
2019-05-23T07:37:49.890Z,14.70
2019-05-23T07:40:18.494Z,14.80
2019-05-23T07:42:47.441Z,15.00
2019-05-23T07:45:17.809Z,15.10
2019-05-23T07:47:46.875Z,15.30
2019-05-23T07:50:15.404Z,15.80
2019-05-23T07:52:43.998Z,16.30
2019-05-23T07:55:32.779Z,16.80
2019-05-23T07:58:01.565Z,17.10
2019-05-23T08:00:37.373Z,17.30
2019-05-23T08:03:07.107Z,17.20
2019-05-23T08:05:35.790Z,16.90
2019-05-23T08:08:04.640Z,16.70
2019-05-23T08:10:34.537Z,16.60
2019-05-23T08:13:03.324Z,16.40
2019-05-23T08:15:32.043Z,16.30
2019-05-23T08:18:00.534Z,16.10
2019-05-23T08:20:29.275Z,16.00
2019-05-23T08:22:57.788Z,16.10
2019-05-23T08:25:26.509Z,16.10
2019-05-23T08:27:54.949Z,16.10
2019-05-23T08:30:23.708Z,16.00
2019-05-23T08:32:52.158Z,16.10
2019-05-23T08:35:20.752Z,16.10
2019-05-23T08:37:49.203Z,16.10
2019-05-23T08:40:18.686Z,16.20
2019-05-23T08:42:47.392Z,16.20
2019-05-23T08:45:16.982Z,16.40
2019-05-23T08:47:45.455Z,16.50
2019-05-23T08:50:15.264Z,16.30
2019-05-23T08:52:43.692Z,16.30
2019-05-23T08:55:20.760Z,16.50
2019-05-23T08:57:49.533Z,16.70
2019-05-23T09:00:19.961Z,16.90
2019-05-23T09:02:49.110Z,17.00
2019-05-23T09:05:19.061Z,17.00
2019-05-23T09:07:47.990Z,16.90
2019-05-23T09:10:17.054Z,17.00
2019-05-23T09:12:45.879Z,17.00
2019-05-23T09:15:14.861Z,17.10
2019-05-23T09:17:53.109Z,17.20
2019-05-23T09:20:14.237Z,17.20
2019-05-23T09:22:42.761Z,17.30
2019-05-23T09:25:12.240Z,17.40
2019-05-23T09:27:40.685Z,17.40
2019-05-23T09:30:10.740Z,17.50
2019-05-23T09:32:39.469Z,17.50
2019-05-23T09:35:20.258Z,17.60
2019-05-23T09:37:39.753Z,17.50
2019-05-23T09:40:09.295Z,17.60
2019-05-23T09:42:37.820Z,17.80
2019-05-23T09:45:07.604Z,17.80
2019-05-23T09:47:36.144Z,17.80
2019-05-23T09:50:08.655Z,17.70
2019-05-23T09:52:37.099Z,17.80
2019-05-23T09:55:07.268Z,17.80
2019-05-23T09:57:35.863Z,17.90
2019-05-23T10:00:07.278Z,17.90
2019-05-23T10:02:35.947Z,17.80
2019-05-23T10:05:10.257Z,17.90
2019-05-23T10:07:38.969Z,18.00
2019-05-23T10:10:09.788Z,17.90
2019-05-23T10:12:38.383Z,17.80
2019-05-23T10:15:10.189Z,17.90
2019-05-23T10:17:38.727Z,17.90
2019-05-23T10:20:10.355Z,18.20
2019-05-23T10:22:38.810Z,18.30
2019-05-23T10:25:08.784Z,18.40
2019-05-23T10:27:37.234Z,18.50
2019-05-23T10:30:08.864Z,18.50
2019-05-23T10:32:42.822Z,18.70
2019-05-23T10:35:11.670Z,18.60
2019-05-23T10:37:40.130Z,18.70
2019-05-23T10:40:09.074Z,18.70
2019-05-23T10:42:37.947Z,18.60
2019-05-23T10:45:08.699Z,18.70
2019-05-23T10:47:37.219Z,18.70
2019-05-23T10:50:10.294Z,18.70
2019-05-23T10:52:38.935Z,18.70
2019-05-23T10:55:07.813Z,18.80
2019-05-23T10:57:36.454Z,18.70
2019-05-23T11:00:10.884Z,18.60
2019-05-23T11:02:39.999Z,18.60
2019-05-23T11:05:13.597Z,18.40
2019-05-23T11:07:41.214Z,18.50
2019-05-23T11:10:10.065Z,18.50
2019-05-23T11:12:38.512Z,18.50
2019-05-23T11:15:07.389Z,18.60
2019-05-23T11:17:36.251Z,18.60
2019-05-23T11:20:08.282Z,18.60
2019-05-23T11:22:36.732Z,18.60
2019-05-23T11:25:07.644Z,18.60
2019-05-23T11:27:36.863Z,18.70
2019-05-23T11:30:08.772Z,18.80
2019-05-23T11:32:37.294Z,18.80
2019-05-23T11:35:06.263Z,19.00
2019-05-23T11:37:34.720Z,18.90
2019-05-23T11:40:04.114Z,19.10
2019-05-23T11:42:32.625Z,19.10
2019-05-23T11:45:01.077Z,19.00
2019-05-23T11:47:32.025Z,19.00
2019-05-23T11:50:00.129Z,19.10
2019-05-23T11:52:30.008Z,19.20
2019-05-23T11:54:59.069Z,19.10
2019-05-23T11:57:27.664Z,19.00
2019-05-23T11:59:56.115Z,19.10
2019-05-23T12:02:26.363Z,19.10
2019-05-23T12:04:56.594Z,19.20
2019-05-23T12:07:26.677Z,19.20
2019-05-23T12:09:55.181Z,19.30
2019-05-23T12:12:23.888Z,19.40
2019-05-23T12:14:52.537Z,19.50
2019-05-23T12:17:22.703Z,19.30
2019-05-23T12:19:51.317Z,19.20
2019-05-23T12:22:19.934Z,19.20
2019-05-23T12:24:48.393Z,19.20
2019-05-23T12:27:16.827Z,19.20
2019-05-23T12:29:45.457Z,19.20
2019-05-23T12:32:13.983Z,19.20
2019-05-23T12:34:42.623Z,19.40
2019-05-23T12:37:20.423Z,19.40
2019-05-23T12:39:41.336Z,19.30
2019-05-23T12:42:09.765Z,19.20
2019-05-23T12:44:38.311Z,19.20
2019-05-23T12:47:08.490Z,19.30
2019-05-23T12:49:38.644Z,19.40
2019-05-23T12:52:08.287Z,19.40
2019-05-23T12:54:36.766Z,19.40
2019-05-23T12:57:05.636Z,19.40
2019-05-23T12:59:34.937Z,19.50
2019-05-23T13:02:04.996Z,19.60
2019-05-23T13:04:33.915Z,19.70
2019-05-23T13:07:03.207Z,19.80
2019-05-23T13:09:31.781Z,19.70
2019-05-23T13:12:00.214Z,19.60
2019-05-23T13:14:28.670Z,19.70
2019-05-23T13:17:00.710Z,19.60
2019-05-23T13:19:27.283Z,19.70
2019-05-23T13:21:55.709Z,19.70
2019-05-23T13:24:24.248Z,19.80
2019-05-23T13:26:52.820Z,19.80
2019-05-23T13:29:24.362Z,19.70
2019-05-23T13:31:51.611Z,19.60
2019-05-23T13:34:20.052Z,19.70
2019-05-23T13:36:48.514Z,19.80
2019-05-23T13:39:17.895Z,19.80
2019-05-23T13:41:46.594Z,19.90
2019-05-23T13:44:31.828Z,20.00
2019-05-23T13:46:45.284Z,20.00
2019-05-23T13:49:14.180Z,20.10
2019-05-23T13:51:42.970Z,20.10
2019-05-23T13:54:11.479Z,20.10
2019-05-23T13:56:39.956Z,20.20
2019-05-23T13:59:08.716Z,20.30
2019-05-23T14:01:37.785Z,20.50
2019-05-23T14:04:06.205Z,20.50
2019-05-23T14:06:34.660Z,20.50
2019-05-23T14:09:03.394Z,20.30
2019-05-23T14:11:31.987Z,20.30
2019-05-23T14:14:02.641Z,20.20
2019-05-23T14:16:32.247Z,20.10
2019-05-23T14:19:00.679Z,20.00
2019-05-23T14:21:30.798Z,19.80
2019-05-23T14:23:59.237Z,19.70
2019-05-23T14:26:29.355Z,19.60
2019-05-23T14:28:57.879Z,19.70
2019-05-23T14:31:28.093Z,19.80
2019-05-23T14:33:58.164Z,20.00
2019-05-23T14:36:37.514Z,19.90
2019-05-23T14:39:09.202Z,20.00
2019-05-23T14:41:45.348Z,20.10
2019-05-23T14:44:09.615Z,20.20
2019-05-23T14:46:39.839Z,20.30
2019-05-23T14:49:15.992Z,20.40
2019-05-23T14:51:46.151Z,20.50
2019-05-23T14:54:25.081Z,20.50
2019-05-23T14:56:54.291Z,20.60
2019-05-23T14:59:23.314Z,20.40
2019-05-23T15:01:52.575Z,20.20
2019-05-23T15:04:21.062Z,20.10
2019-05-23T15:06:49.514Z,19.90
2019-05-23T15:09:21.292Z,19.80
2019-05-23T15:11:48.798Z,19.70
2019-05-23T15:14:17.236Z,19.60
2019-05-23T15:16:45.760Z,19.60
2019-05-23T15:19:14.189Z,19.60
2019-05-23T15:21:42.643Z,19.60
2019-05-23T15:24:11.143Z,19.50
2019-05-23T15:26:39.570Z,19.50
2019-05-23T15:29:08.040Z,19.40
2019-05-23T15:31:36.700Z,19.30
2019-05-23T15:34:05.393Z,19.30
2019-05-23T15:36:33.933Z,19.20
2019-05-23T15:39:09.580Z,19.10
2019-05-23T15:41:32.537Z,18.90
2019-05-23T15:44:01.006Z,18.90
2019-05-23T15:46:29.451Z,18.90
2019-05-23T15:48:57.953Z,18.90
2019-05-23T15:51:28.030Z,19.00
2019-05-23T15:53:58.115Z,18.90
2019-05-23T15:56:44.600Z,18.90
2019-05-23T15:59:17.404Z,18.90
2019-05-23T16:01:53.385Z,18.90
2019-05-23T16:04:22.843Z,19.00
2019-05-23T16:06:51.349Z,19.00
2019-05-23T16:09:29.212Z,18.90
2019-05-23T16:11:51.030Z,18.90
2019-05-23T16:14:19.803Z,18.80
2019-05-23T16:16:48.235Z,18.80
2019-05-23T16:19:16.766Z,18.70
2019-05-23T16:21:45.380Z,18.70
2019-05-23T16:24:14.501Z,18.70
2019-05-23T16:26:42.928Z,18.70
2019-05-23T16:29:12.651Z,18.60
2019-05-23T16:31:41.780Z,18.60
2019-05-23T16:34:10.363Z,18.60
2019-05-23T16:36:38.794Z,18.50
2019-05-23T16:39:08.373Z,18.50
2019-05-23T16:41:36.893Z,18.50
2019-05-23T16:44:05.822Z,18.50
2019-05-23T16:46:34.298Z,18.50
2019-05-23T16:49:02.768Z,18.50
2019-05-23T16:51:31.276Z,18.50
2019-05-23T16:54:00.118Z,18.60
2019-05-23T16:56:46.699Z,18.60
2019-05-23T16:59:28.786Z,18.60
2019-05-23T17:02:07.616Z,18.60
2019-05-23T17:04:46.585Z,18.60
2019-05-23T17:07:28.871Z,18.60
2019-05-23T17:10:13.725Z,18.60
2019-05-23T17:12:43.874Z,18.60
2019-05-23T17:15:26.047Z,18.60
2019-05-23T17:18:08.277Z,18.50
2019-05-23T17:20:56.541Z,18.50
2019-05-23T17:23:29.765Z,18.40
2019-05-23T17:26:08.690Z,18.40
2019-05-23T17:28:39.047Z,18.30
2019-05-23T17:31:09.411Z,18.30
2019-05-23T17:33:38.210Z,18.30
2019-05-23T17:36:06.808Z,18.20
2019-05-23T17:38:35.334Z,18.10
2019-05-23T17:41:04.011Z,18.10
2019-05-23T17:43:32.521Z,18.00
2019-05-23T17:46:00.972Z,18.00
2019-05-23T17:48:29.427Z,17.90
2019-05-23T17:50:58.008Z,17.90
2019-05-23T17:53:26.527Z,17.90
2019-05-23T17:55:55.619Z,17.80
2019-05-23T17:58:25.096Z,17.80
2019-05-23T18:00:53.631Z,17.70
2019-05-23T18:03:22.239Z,17.70
2019-05-23T18:05:51.151Z,17.70
2019-05-23T18:08:19.909Z,17.60
2019-05-23T18:10:48.354Z,17.50
2019-05-23T18:13:16.807Z,17.50
2019-05-23T18:15:45.702Z,17.40
2019-05-23T18:18:14.525Z,17.40
2019-05-23T18:20:44.101Z,17.30
2019-05-23T18:23:12.725Z,17.30
2019-05-23T18:25:41.411Z,17.30
2019-05-23T18:28:12.062Z,17.20
2019-05-23T18:30:58.138Z,17.20
2019-05-23T18:33:28.282Z,17.20
2019-05-23T18:35:57.635Z,17.00
2019-05-23T18:38:26.188Z,17.00
2019-05-23T18:41:03.129Z,17.00
2019-05-23T18:43:25.756Z,16.90
2019-05-23T18:45:55.922Z,16.80
2019-05-23T18:48:24.600Z,16.70
2019-05-23T18:50:53.206Z,16.60
2019-05-23T18:53:22.096Z,16.60
2019-05-23T18:55:50.605Z,16.60
2019-05-23T18:58:20.088Z,16.50
2019-05-23T19:00:56.630Z,16.40
2019-05-23T19:03:25.149Z,16.30
2019-05-23T19:05:53.580Z,16.40
2019-05-23T19:08:23.090Z,16.30
2019-05-23T19:10:51.619Z,16.30
2019-05-23T19:13:20.313Z,16.30
2019-05-23T19:15:49.091Z,16.20
2019-05-23T19:18:17.614Z,16.20
2019-05-23T19:20:46.476Z,16.10
2019-05-23T19:23:14.923Z,16.10
2019-05-23T19:25:44.641Z,16.00
2019-05-23T19:28:13.090Z,15.90
2019-05-23T19:30:42.260Z,15.90
2019-05-23T19:33:10.994Z,15.80
2019-05-23T19:35:39.728Z,15.80
2019-05-23T19:38:08.466Z,15.70
2019-05-23T19:40:37.133Z,15.70
2019-05-23T19:43:06.634Z,15.70
2019-05-23T19:45:35.616Z,15.70
2019-05-23T19:48:04.421Z,15.80
2019-05-23T19:50:33.953Z,15.90
2019-05-23T19:53:02.409Z,16.00
2019-05-23T19:55:31.713Z,16.00
2019-05-23T19:58:00.623Z,15.90
2019-05-23T20:00:31.244Z,15.80
2019-05-23T20:03:03.708Z,15.80
2019-05-23T20:05:40.688Z,15.60
2019-05-23T20:08:09.483Z,15.60
2019-05-23T20:10:39.432Z,15.60
2019-05-23T20:13:08.045Z,15.50
2019-05-23T20:15:36.541Z,15.50
2019-05-23T20:18:06.593Z,15.40
2019-05-23T20:20:36.728Z,15.30
2019-05-23T20:23:05.215Z,15.20
2019-05-23T20:25:34.274Z,15.20
2019-05-23T20:28:02.777Z,15.10
2019-05-23T20:30:46.188Z,15.10
2019-05-23T20:33:15.310Z,15.10
2019-05-23T20:35:43.814Z,15.00
2019-05-23T20:38:12.296Z,15.00
2019-05-23T20:40:40.743Z,14.90
2019-05-23T20:43:09.249Z,14.90
2019-05-23T20:45:37.966Z,14.80
2019-05-23T20:48:07.765Z,14.80
2019-05-23T20:50:36.498Z,14.80
2019-05-23T20:53:05.269Z,14.80
2019-05-23T20:55:34.088Z,14.70
2019-05-23T20:58:03.229Z,14.70
2019-05-23T21:00:36.318Z,14.60
2019-05-23T21:03:05.348Z,14.60
2019-05-23T21:05:33.945Z,14.60
2019-05-23T21:08:02.372Z,14.60
2019-05-23T21:10:39.412Z,14.60
2019-05-23T21:13:07.929Z,14.60
2019-05-23T21:15:36.600Z,14.60
2019-05-23T21:18:05.884Z,14.50
2019-05-23T21:20:34.606Z,14.40
2019-05-23T21:23:03.090Z,14.30
2019-05-23T21:25:32.395Z,14.20
2019-05-23T21:28:00.832Z,14.20
2019-05-23T21:30:29.299Z,14.10
2019-05-23T21:32:57.734Z,14.10
2019-05-23T21:35:26.180Z,14.10
2019-05-23T21:37:54.616Z,14.10
2019-05-23T21:40:37.837Z,14.10
2019-05-23T21:43:06.334Z,14.10
2019-05-23T21:45:34.856Z,14.00
2019-05-23T21:48:03.556Z,14.00
2019-05-23T21:50:32.179Z,13.90
2019-05-23T21:53:00.685Z,13.90
2019-05-23T21:55:37.671Z,13.80
2019-05-23T21:58:06.934Z,13.80
2019-05-23T22:01:07.005Z,13.70
2019-05-23T22:03:55.327Z,13.70
2019-05-23T22:06:42.787Z,13.60
2019-05-23T22:09:12.866Z,13.50
2019-05-23T22:11:41.562Z,13.50
2019-05-23T22:14:10.062Z,13.50
2019-05-23T22:16:38.683Z,13.40
2019-05-23T22:19:09.026Z,13.50
2019-05-23T22:21:37.478Z,13.50
2019-05-23T22:24:06.953Z,13.60
2019-05-23T22:26:35.417Z,13.50
2019-05-23T22:29:03.927Z,13.50
2019-05-23T22:31:32.373Z,13.50
2019-05-23T22:34:02.452Z,13.50
2019-05-23T22:36:30.913Z,13.40
2019-05-23T22:38:59.421Z,13.40
2019-05-23T22:41:27.865Z,13.40
2019-05-23T22:43:56.299Z,13.40
2019-05-23T22:46:26.127Z,13.30
2019-05-23T22:48:54.633Z,13.30
2019-05-23T22:51:23.154Z,13.20
2019-05-23T22:53:51.619Z,13.10
2019-05-23T22:56:20.054Z,13.00
2019-05-23T22:58:48.524Z,12.90
2019-05-23T23:01:17.094Z,13.00
2019-05-23T23:03:45.559Z,13.00
2019-05-23T23:06:14.282Z,13.10
2019-05-23T23:08:42.792Z,13.00
2019-05-23T23:11:11.721Z,13.00
2019-05-23T23:13:40.402Z,12.90
2019-05-23T23:16:09.292Z,12.90
2019-05-23T23:18:37.731Z,12.90
2019-05-23T23:21:06.170Z,12.90
2019-05-23T23:23:34.614Z,12.90
2019-05-23T23:26:03.046Z,12.80
2019-05-23T23:28:31.648Z,12.90
2019-05-23T23:31:00.079Z,12.90
2019-05-23T23:33:28.521Z,12.80
2019-05-23T23:35:57.021Z,12.80
2019-05-23T23:38:25.480Z,12.70
2019-05-23T23:40:53.910Z,12.70
2019-05-23T23:43:22.371Z,12.60
2019-05-23T23:46:08.380Z,12.70
2019-05-23T23:48:54.735Z,12.70
2019-05-23T23:51:41.217Z,12.70
2019-05-23T23:54:27.298Z,12.60
2019-05-23T23:57:13.454Z,12.60
2019-05-23T23:59:41.290Z,12.60
